KMSV/MSV METAR and TAF weather

Enter ICAO airport designator
Station Type Date Time Source
KMSV METAR 2021/08/05 04:56 UTC NOAA

KMSV 050456Z AUTO 00000KT 10SM OVC080 16/14 A3017 RMK AO2 SLP211 T01560144 402280117


Station Type Date Time Source
KMSV Decoded METAR 2021/08/05 04:56 UTC NOAA

Monticello, Sullivan County International Airport, NY, United States (KMSV) 41-42N 074-48W
Aug 05, 2021 - 12:56 AM EDT / 2021.08.05 0456 UTC
Wind: Calm:0
Visibility: 10 mile(s):0
Sky conditions: overcast
Temperature: 60.1 F (15.6 C)
Dew Point: 57.9 F (14.4 C)
Relative Humidity: 92%
Pressure (altimeter): 30.17 in. Hg (1021 hPa)
ob: KMSV 050456Z AUTO 00000KT 10SM OVC080 16/14 A3017 RMK AO2 SLP211 T01560144 402280117
cycle: 5

Station Type Date Time Source
KMSV TAF UTC NOAA

Error!

Example: see airport list